sensor_id;sensor_type;location;lat;lon;timestamp;temperature;humidity
10089;DHT22;51898;49.864;8.550;2022-12-19T00:02:41;-2.10;99.90
10089;DHT22;51898;49.864;8.550;2022-12-19T00:05:44;-2.00;99.90
10089;DHT22;51898;49.864;8.550;2022-12-19T00:08:48;-2.10;99.90
10089;DHT22;51898;49.864;8.550;2022-12-19T00:11:50;-2.20;99.90
10089;DHT22;51898;49.864;8.550;2022-12-19T00:14:52;-2.20;99.90
10089;DHT22;51898;49.864;8.550;2022-12-19T00:17:53;-2.20;99.90
10089;DHT22;51898;49.864;8.550;2022-12-19T00:20:57;-2.10;99.90
10089;DHT22;51898;49.864;8.550;2022-12-19T00:23:59;-2.00;99.90
10089;DHT22;51898;49.864;8.550;2022-12-19T00:27:01;-2.00;99.90
10089;DHT22;51898;49.864;8.550;2022-12-19T00:30:03;-2.00;99.90
10089;DHT22;51898;49.864;8.550;2022-12-19T00:33:04;-2.20;99.90
10089;DHT22;51898;49.864;8.550;2022-12-19T00:36:10;-2.40;99.90
10089;DHT22;51898;49.864;8.550;2022-12-19T00:39:15;-2.40;99.90
10089;DHT22;51898;49.864;8.550;2022-12-19T00:42:17;-2.40;99.90
10089;DHT22;51898;49.864;8.550;2022-12-19T00:45:18;-2.40;99.90
10089;DHT22;51898;49.864;8.550;2022-12-19T00:48:20;-2.40;99.90
10089;DHT22;51898;49.864;8.550;2022-12-19T00:51:24;-2.40;99.90
10089;DHT22;51898;49.864;8.550;2022-12-19T00:54:26;-2.30;99.90
10089;DHT22;51898;49.864;8.550;2022-12-19T00:57:28;-2.30;99.90
10089;DHT22;51898;49.864;8.550;2022-12-19T01:00:30;-2.20;99.90
10089;DHT22;51898;49.864;8.550;2022-12-19T01:03:31;-2.10;99.90
10089;DHT22;51898;49.864;8.550;2022-12-19T01:06:33;-2.10;99.90
10089;DHT22;51898;49.864;8.550;2022-12-19T01:09:35;-2.00;99.90
10089;DHT22;51898;49.864;8.550;2022-12-19T01:12:37;-2.00;99.90
10089;DHT22;51898;49.864;8.550;2022-12-19T01:15:48;-2.00;99.90
10089;DHT22;51898;49.864;8.550;2022-12-19T01:18:49;-2.30;99.90
10089;DHT22;51898;49.864;8.550;2022-12-19T01:21:51;-2.30;99.90
10089;DHT22;51898;49.864;8.550;2022-12-19T01:24:53;-2.30;99.90
10089;DHT22;51898;49.864;8.550;2022-12-19T01:27:55;-2.20;99.90
10089;DHT22;51898;49.864;8.550;2022-12-19T01:30:57;-2.10;99.90
10089;DHT22;51898;49.864;8.550;2022-12-19T01:33:59;-2.00;99.90
10089;DHT22;51898;49.864;8.550;2022-12-19T01:37:01;-2.10;99.90
10089;DHT22;51898;49.864;8.550;2022-12-19T01:40:03;-2.10;99.90
10089;DHT22;51898;49.864;8.550;2022-12-19T01:43:10;-2.20;99.90
10089;DHT22;51898;49.864;8.550;2022-12-19T01:46:13;-2.10;99.90
10089;DHT22;51898;49.864;8.550;2022-12-19T01:49:32;-2.10;99.90
10089;DHT22;51898;49.864;8.550;2022-12-19T01:52:35;-2.00;99.90
10089;DHT22;51898;49.864;8.550;2022-12-19T01:55:38;-2.00;99.90
10089;DHT22;51898;49.864;8.550;2022-12-19T01:58:43;-1.90;99.90
10089;DHT22;51898;49.864;8.550;2022-12-19T02:01:51;-1.90;99.90
10089;DHT22;51898;49.864;8.550;2022-12-19T02:04:55;-1.80;99.90
10089;DHT22;51898;49.864;8.550;2022-12-19T02:07:57;-1.80;99.90
10089;DHT22;51898;49.864;8.550;2022-12-19T02:11:00;-1.80;99.90
10089;DHT22;51898;49.864;8.550;2022-12-19T02:14:02;-1.70;99.90
10089;DHT22;51898;49.864;8.550;2022-12-19T02:17:23;-1.70;99.90
10089;DHT22;51898;49.864;8.550;2022-12-19T02:31:26;-1.80;99.90
10089;DHT22;51898;49.864;8.550;2022-12-19T02:34:55;-1.70;99.90
10089;DHT22;51898;49.864;8.550;2022-12-19T02:38:10;-1.60;99.90
10089;DHT22;51898;49.864;8.550;2022-12-19T02:41:31;-1.60;99.90
10089;DHT22;51898;49.864;8.550;2022-12-19T02:44:49;-1.50;99.90
10089;DHT22;51898;49.864;8.550;2022-12-19T02:47:51;-1.40;99.90
10089;DHT22;51898;49.864;8.550;2022-12-19T02:50:53;-1.40;99.90
10089;DHT22;51898;49.864;8.550;2022-12-19T02:53:55;-1.30;99.90
10089;DHT22;51898;49.864;8.550;2022-12-19T02:57:15;-1.40;99.90
10089;DHT22;51898;49.864;8.550;2022-12-19T03:00:22;-1.40;99.90
10089;DHT22;51898;49.864;8.550;2022-12-19T03:03:50;-1.20;99.90
10089;DHT22;51898;49.864;8.550;2022-12-19T03:07:28;-1.10;99.90
10089;DHT22;51898;49.864;8.550;2022-12-19T03:10:36;-1.20;99.90
10089;DHT22;51898;49.864;8.550;2022-12-19T03:13:58;-1.10;99.90
10089;DHT22;51898;49.864;8.550;2022-12-19T03:17:05;-1.00;99.90
10089;DHT22;51898;49.864;8.550;2022-12-19T03:20:14;-1.00;99.90
10089;DHT22;51898;49.864;8.550;2022-12-19T03:23:19;-0.90;99.90
10089;DHT22;51898;49.864;8.550;2022-12-19T03:26:24;-0.80;99.90
10089;DHT22;51898;49.864;8.550;2022-12-19T03:32:37;-0.60;99.90
10089;DHT22;51898;49.864;8.550;2022-12-19T03:35:40;-0.60;99.90
10089;DHT22;51898;49.864;8.550;2022-12-19T03:38:45;-0.60;99.90
10089;DHT22;51898;49.864;8.550;2022-12-19T03:41:48;-0.70;99.90
10089;DHT22;51898;49.864;8.550;2022-12-19T03:45:12;-0.70;99.90
10089;DHT22;51898;49.864;8.550;2022-12-19T03:48:35;-0.80;99.90
10089;DHT22;51898;49.864;8.550;2022-12-19T03:51:57;-0.80;99.90
10089;DHT22;51898;49.864;8.550;2022-12-19T03:55:10;-0.80;99.90
10089;DHT22;51898;49.864;8.550;2022-12-19T03:58:25;-0.80;99.90
10089;DHT22;51898;49.864;8.550;2022-12-19T04:01:28;-0.80;99.90
10089;DHT22;51898;49.864;8.550;2022-12-19T04:04:35;-0.70;99.90
10089;DHT22;51898;49.864;8.550;2022-12-19T04:07:39;-0.70;99.90
10089;DHT22;51898;49.864;8.550;2022-12-19T04:10:52;-0.70;99.90
10089;DHT22;51898;49.864;8.550;2022-12-19T04:14:01;-0.60;99.90
10089;DHT22;51898;49.864;8.550;2022-12-19T04:17:32;-0.60;99.90
10089;DHT22;51898;49.864;8.550;2022-12-19T04:20:37;-0.60;99.90
10089;DHT22;51898;49.864;8.550;2022-12-19T04:23:52;-0.60;99.90
10089;DHT22;51898;49.864;8.550;2022-12-19T04:26:56;-0.50;99.90
10089;DHT22;51898;49.864;8.550;2022-12-19T04:30:00;-0.40;99.90
10089;DHT22;51898;49.864;8.550;2022-12-19T04:33:03;-0.30;99.90
10089;DHT22;51898;49.864;8.550;2022-12-19T04:36:05;-0.20;99.90
10089;DHT22;51898;49.864;8.550;2022-12-19T04:39:07;-0.10;99.90
10089;DHT22;51898;49.864;8.550;2022-12-19T04:42:08;-0.10;99.90
10089;DHT22;51898;49.864;8.550;2022-12-19T04:45:10;-0.20;99.90
10089;DHT22;51898;49.864;8.550;2022-12-19T04:48:12;-0.10;99.90
10089;DHT22;51898;49.864;8.550;2022-12-19T04:51:15;0.00;99.90
10089;DHT22;51898;49.864;8.550;2022-12-19T04:54:16;-0.10;99.90
10089;DHT22;51898;49.864;8.550;2022-12-19T04:57:18;-0.20;99.90
10089;DHT22;51898;49.864;8.550;2022-12-19T05:00:20;-0.20;99.90
10089;DHT22;51898;49.864;8.550;2022-12-19T05:03:21;-0.30;99.90
10089;DHT22;51898;49.864;8.550;2022-12-19T05:06:24;-0.20;99.90
10089;DHT22;51898;49.864;8.550;2022-12-19T05:09:25;-0.20;99.90
10089;DHT22;51898;49.864;8.550;2022-12-19T05:12:27;-0.20;99.90
10089;DHT22;51898;49.864;8.550;2022-12-19T05:15:29;-0.20;99.90
10089;DHT22;51898;49.864;8.550;2022-12-19T05:18:31;-0.20;99.90
10089;DHT22;51898;49.864;8.550;2022-12-19T05:21:33;-0.10;99.90
10089;DHT22;51898;49.864;8.550;2022-12-19T05:24:34;-0.20;99.90
10089;DHT22;51898;49.864;8.550;2022-12-19T05:27:36;-0.20;99.90
10089;DHT22;51898;49.864;8.550;2022-12-19T05:30:38;-0.20;99.90
10089;DHT22;51898;49.864;8.550;2022-12-19T05:33:40;-0.30;99.90
10089;DHT22;51898;49.864;8.550;2022-12-19T05:36:43;-0.40;99.90
10089;DHT22;51898;49.864;8.550;2022-12-19T05:39:45;-0.50;99.90
10089;DHT22;51898;49.864;8.550;2022-12-19T05:42:46;-0.50;99.90
10089;DHT22;51898;49.864;8.550;2022-12-19T05:45:48;-0.30;99.90
10089;DHT22;51898;49.864;8.550;2022-12-19T05:48:50;-0.30;99.90
10089;DHT22;51898;49.864;8.550;2022-12-19T05:51:52;-0.20;99.90
10089;DHT22;51898;49.864;8.550;2022-12-19T05:54:54;-0.10;99.90
10089;DHT22;51898;49.864;8.550;2022-12-19T05:57:56;-0.30;99.90
10089;DHT22;51898;49.864;8.550;2022-12-19T06:01:21;-0.40;99.90
10089;DHT22;51898;49.864;8.550;2022-12-19T06:04:24;-0.50;99.90
10089;DHT22;51898;49.864;8.550;2022-12-19T06:07:25;-0.60;99.90
10089;DHT22;51898;49.864;8.550;2022-12-19T06:10:30;-0.60;99.90
10089;DHT22;51898;49.864;8.550;2022-12-19T06:13:32;-0.50;99.90
10089;DHT22;51898;49.864;8.550;2022-12-19T06:16:37;-0.50;99.90
10089;DHT22;51898;49.864;8.550;2022-12-19T06:19:39;-0.60;99.90
10089;DHT22;51898;49.864;8.550;2022-12-19T06:22:41;-0.50;99.90
10089;DHT22;51898;49.864;8.550;2022-12-19T06:25:45;-0.40;99.90
10089;DHT22;51898;49.864;8.550;2022-12-19T06:28:48;-0.20;99.90
10089;DHT22;51898;49.864;8.550;2022-12-19T06:31:52;-0.10;99.90
10089;DHT22;51898;49.864;8.550;2022-12-19T06:35:00;0.00;99.90
10089;DHT22;51898;49.864;8.550;2022-12-19T06:38:05;0.00;99.90
10089;DHT22;51898;49.864;8.550;2022-12-19T06:41:08;0.10;99.90
10089;DHT22;51898;49.864;8.550;2022-12-19T06:44:30;0.10;99.90
10089;DHT22;51898;49.864;8.550;2022-12-19T06:47:32;0.20;99.90
10089;DHT22;51898;49.864;8.550;2022-12-19T06:50:34;0.30;99.90
10089;DHT22;51898;49.864;8.550;2022-12-19T06:53:36;0.30;99.90
10089;DHT22;51898;49.864;8.550;2022-12-19T06:56:40;0.40;99.90
10089;DHT22;51898;49.864;8.550;2022-12-19T06:59:43;0.40;99.90
10089;DHT22;51898;49.864;8.550;2022-12-19T07:02:48;0.40;99.90
10089;DHT22;51898;49.864;8.550;2022-12-19T07:05:52;0.40;99.90
10089;DHT22;51898;49.864;8.550;2022-12-19T07:08:54;0.20;99.90
10089;DHT22;51898;49.864;8.550;2022-12-19T07:11:59;0.10;99.90
10089;DHT22;51898;49.864;8.550;2022-12-19T07:15:01;0.10;99.90
10089;DHT22;51898;49.864;8.550;2022-12-19T07:18:06;0.00;99.90
10089;DHT22;51898;49.864;8.550;2022-12-19T07:21:13;-0.10;99.90
10089;DHT22;51898;49.864;8.550;2022-12-19T07:24:15;-0.10;99.90
10089;DHT22;51898;49.864;8.550;2022-12-19T07:27:17;-0.10;99.90
10089;DHT22;51898;49.864;8.550;2022-12-19T07:30:18;-0.10;99.90
10089;DHT22;51898;49.864;8.550;2022-12-19T07:33:23;0.20;99.90
10089;DHT22;51898;49.864;8.550;2022-12-19T07:36:27;0.20;99.90
10089;DHT22;51898;49.864;8.550;2022-12-19T07:39:29;0.10;99.90
10089;DHT22;51898;49.864;8.550;2022-12-19T07:42:31;0.20;99.90
10089;DHT22;51898;49.864;8.550;2022-12-19T07:45:37;0.20;99.90
10089;DHT22;51898;49.864;8.550;2022-12-19T07:48:40;0.30;99.90
10089;DHT22;51898;49.864;8.550;2022-12-19T07:51:44;0.40;99.90
10089;DHT22;51898;49.864;8.550;2022-12-19T07:54:49;0.50;99.90
10089;DHT22;51898;49.864;8.550;2022-12-19T07:57:51;0.50;99.90
10089;DHT22;51898;49.864;8.550;2022-12-19T08:00:54;0.50;99.90
10089;DHT22;51898;49.864;8.550;2022-12-19T08:04:00;0.50;99.90
10089;DHT22;51898;49.864;8.550;2022-12-19T08:07:10;0.50;99.90
10089;DHT22;51898;49.864;8.550;2022-12-19T08:10:12;0.50;99.90
10089;DHT22;51898;49.864;8.550;2022-12-19T08:13:15;0.50;99.90
10089;DHT22;51898;49.864;8.550;2022-12-19T08:16:17;0.50;99.90
10089;DHT22;51898;49.864;8.550;2022-12-19T08:19:19;0.60;99.90
10089;DHT22;51898;49.864;8.550;2022-12-19T08:22:30;0.60;99.90
10089;DHT22;51898;49.864;8.550;2022-12-19T08:25:32;0.50;99.90
10089;DHT22;51898;49.864;8.550;2022-12-19T08:28:40;0.70;99.90
10089;DHT22;51898;49.864;8.550;2022-12-19T08:31:42;0.70;99.90
10089;DHT22;51898;49.864;8.550;2022-12-19T08:34:43;0.80;99.90
10089;DHT22;51898;49.864;8.550;2022-12-19T08:37:45;0.90;99.90
10089;DHT22;51898;49.864;8.550;2022-12-19T08:40:52;0.80;99.90
10089;DHT22;51898;49.864;8.550;2022-12-19T08:43:54;0.60;99.90
10089;DHT22;51898;49.864;8.550;2022-12-19T08:46:58;0.40;99.90
10089;DHT22;51898;49.864;8.550;2022-12-19T08:50:00;0.40;99.90
10089;DHT22;51898;49.864;8.550;2022-12-19T08:53:02;0.60;99.90
10089;DHT22;51898;49.864;8.550;2022-12-19T08:56:06;0.60;99.90
10089;DHT22;51898;49.864;8.550;2022-12-19T08:59:08;0.60;99.90
10089;DHT22;51898;49.864;8.550;2022-12-19T09:02:13;0.70;99.90
10089;DHT22;51898;49.864;8.550;2022-12-19T09:05:16;0.70;99.90
10089;DHT22;51898;49.864;8.550;2022-12-19T09:08:39;0.60;99.90
10089;DHT22;51898;49.864;8.550;2022-12-19T09:11:43;0.50;99.90
10089;DHT22;51898;49.864;8.550;2022-12-19T09:14:49;0.40;99.90
10089;DHT22;51898;49.864;8.550;2022-12-19T09:17:51;0.40;99.90
10089;DHT22;51898;49.864;8.550;2022-12-19T09:20:55;0.50;99.90
10089;DHT22;51898;49.864;8.550;2022-12-19T09:23:58;0.50;99.90
10089;DHT22;51898;49.864;8.550;2022-12-19T09:27:08;0.50;99.90
10089;DHT22;51898;49.864;8.550;2022-12-19T09:30:10;0.60;99.90
10089;DHT22;51898;49.864;8.550;2022-12-19T09:33:13;0.80;99.90
10089;DHT22;51898;49.864;8.550;2022-12-19T09:36:22;0.90;99.90
10089;DHT22;51898;49.864;8.550;2022-12-19T09:39:24;0.90;99.90
10089;DHT22;51898;49.864;8.550;2022-12-19T09:42:40;0.90;99.90
10089;DHT22;51898;49.864;8.550;2022-12-19T09:49:00;0.80;99.90
10089;DHT22;51898;49.864;8.550;2022-12-19T09:52:12;0.90;99.90
10089;DHT22;51898;49.864;8.550;2022-12-19T09:55:27;1.00;99.90
10089;DHT22;51898;49.864;8.550;2022-12-19T09:58:40;1.10;99.90
10089;DHT22;51898;49.864;8.550;2022-12-19T10:05:29;1.30;99.90
10089;DHT22;51898;49.864;8.550;2022-12-19T10:08:54;1.20;99.90
10089;DHT22;51898;49.864;8.550;2022-12-19T10:15:56;1.10;99.90
10089;DHT22;51898;49.864;8.550;2022-12-19T10:19:04;1.20;99.90
10089;DHT22;51898;49.864;8.550;2022-12-19T10:22:40;1.10;99.90
10089;DHT22;51898;49.864;8.550;2022-12-19T10:26:15;1.10;99.90
10089;DHT22;51898;49.864;8.550;2022-12-19T10:29:40;1.10;99.90
10089;DHT22;51898;49.864;8.550;2022-12-19T10:36:09;1.10;99.90
10089;DHT22;51898;49.864;8.550;2022-12-19T10:39:26;0.90;99.90
10089;DHT22;51898;49.864;8.550;2022-12-19T10:42:46;1.10;99.90
10089;DHT22;51898;49.864;8.550;2022-12-19T10:45:53;1.20;99.90
10089;DHT22;51898;49.864;8.550;2022-12-19T10:49:05;1.30;99.90
10089;DHT22;51898;49.864;8.550;2022-12-19T10:52:09;1.20;99.90
10089;DHT22;51898;49.864;8.550;2022-12-19T10:55:29;1.30;99.90
10089;DHT22;51898;49.864;8.550;2022-12-19T10:58:37;1.30;99.90
10089;DHT22;51898;49.864;8.550;2022-12-19T11:01:42;1.20;99.90
10089;DHT22;51898;49.864;8.550;2022-12-19T11:04:46;1.20;99.90
10089;DHT22;51898;49.864;8.550;2022-12-19T11:08:03;1.20;99.90
10089;DHT22;51898;49.864;8.550;2022-12-19T11:11:12;1.20;99.90
10089;DHT22;51898;49.864;8.550;2022-12-19T11:14:36;1.10;99.90
10089;DHT22;51898;49.864;8.550;2022-12-19T11:18:10;1.20;99.90
10089;DHT22;51898;49.864;8.550;2022-12-19T11:21:33;1.10;99.90
10089;DHT22;51898;49.864;8.550;2022-12-19T11:24:54;1.10;99.90
10089;DHT22;51898;49.864;8.550;2022-12-19T11:28:28;1.20;99.90
10089;DHT22;51898;49.864;8.550;2022-12-19T11:32:01;1.30;99.90
10089;DHT22;51898;49.864;8.550;2022-12-19T11:35:25;1.40;99.90
10089;DHT22;51898;49.864;8.550;2022-12-19T11:38:56;1.50;99.90
10089;DHT22;51898;49.864;8.550;2022-12-19T11:48:52;1.70;99.90
10089;DHT22;51898;49.864;8.550;2022-12-19T11:55:49;1.80;99.90
10089;DHT22;51898;49.864;8.550;2022-12-19T11:58:55;1.80;99.90
10089;DHT22;51898;49.864;8.550;2022-12-19T12:02:39;1.90;99.90
10089;DHT22;51898;49.864;8.550;2022-12-19T12:05:47;1.80;99.90
10089;DHT22;51898;49.864;8.550;2022-12-19T12:08:55;1.80;99.90
10089;DHT22;51898;49.864;8.550;2022-12-19T12:16:09;1.70;99.90
10089;DHT22;51898;49.864;8.550;2022-12-19T12:19:45;1.80;99.90
10089;DHT22;51898;49.864;8.550;2022-12-19T12:42:00;1.70;99.90
10089;DHT22;51898;49.864;8.550;2022-12-19T12:45:22;1.70;99.90
10089;DHT22;51898;49.864;8.550;2022-12-19T12:48:35;1.70;99.90
10089;DHT22;51898;49.864;8.550;2022-12-19T12:51:39;1.80;99.90
10089;DHT22;51898;49.864;8.550;2022-12-19T12:54:43;1.90;99.90
10089;DHT22;51898;49.864;8.550;2022-12-19T12:57:45;1.90;99.90
10089;DHT22;51898;49.864;8.550;2022-12-19T13:01:17;2.00;99.90
10089;DHT22;51898;49.864;8.550;2022-12-19T13:04:27;2.00;99.90
10089;DHT22;51898;49.864;8.550;2022-12-19T13:07:42;2.10;99.90
10089;DHT22;51898;49.864;8.550;2022-12-19T13:10:54;2.10;99.90
10089;DHT22;51898;49.864;8.550;2022-12-19T13:13:56;2.20;99.90
10089;DHT22;51898;49.864;8.550;2022-12-19T13:16:59;2.20;99.90
10089;DHT22;51898;49.864;8.550;2022-12-19T13:23:21;2.30;99.90
10089;DHT22;51898;49.864;8.550;2022-12-19T13:26:47;2.20;99.90
10089;DHT22;51898;49.864;8.550;2022-12-19T13:36:03;2.30;99.90
10089;DHT22;51898;49.864;8.550;2022-12-19T13:39:41;2.30;99.90
10089;DHT22;51898;49.864;8.550;2022-12-19T13:46:37;2.20;99.90
10089;DHT22;51898;49.864;8.550;2022-12-19T13:49:40;2.10;99.90
10089;DHT22;51898;49.864;8.550;2022-12-19T13:52:48;2.00;99.90
10089;DHT22;51898;49.864;8.550;2022-12-19T13:55:53;2.00;99.90
10089;DHT22;51898;49.864;8.550;2022-12-19T13:58:58;2.00;99.90
10089;DHT22;51898;49.864;8.550;2022-12-19T14:03:00;1.90;99.90
10089;DHT22;51898;49.864;8.550;2022-12-19T14:05:46;1.90;99.90
10089;DHT22;51898;49.864;8.550;2022-12-19T14:09:22;1.90;99.90
10089;DHT22;51898;49.864;8.550;2022-12-19T14:12:48;2.00;99.90
10089;DHT22;51898;49.864;8.550;2022-12-19T14:16:29;2.10;99.90
10089;DHT22;51898;49.864;8.550;2022-12-19T14:19:48;2.10;99.90
10089;DHT22;51898;49.864;8.550;2022-12-19T14:22:55;2.10;99.90
10089;DHT22;51898;49.864;8.550;2022-12-19T14:25:57;2.00;99.90
10089;DHT22;51898;49.864;8.550;2022-12-19T14:29:36;2.00;99.90
10089;DHT22;51898;49.864;8.550;2022-12-19T14:33:08;2.20;99.90
10089;DHT22;51898;49.864;8.550;2022-12-19T14:36:32;2.10;99.90
10089;DHT22;51898;49.864;8.550;2022-12-19T14:39:35;2.00;99.90
10089;DHT22;51898;49.864;8.550;2022-12-19T14:42:37;1.90;99.90
10089;DHT22;51898;49.864;8.550;2022-12-19T14:49:42;1.50;99.90
10089;DHT22;51898;49.864;8.550;2022-12-19T14:53:12;1.40;99.90
10089;DHT22;51898;49.864;8.550;2022-12-19T14:56:49;1.50;99.90
10089;DHT22;51898;49.864;8.550;2022-12-19T15:00:19;1.50;99.90
10089;DHT22;51898;49.864;8.550;2022-12-19T15:03:48;1.50;99.90
10089;DHT22;51898;49.864;8.550;2022-12-19T15:07:22;1.50;99.90
10089;DHT22;51898;49.864;8.550;2022-12-19T15:10:29;1.50;99.90
10089;DHT22;51898;49.864;8.550;2022-12-19T15:13:56;1.40;99.90
10089;DHT22;51898;49.864;8.550;2022-12-19T15:17:20;1.40;99.90
10089;DHT22;51898;49.864;8.550;2022-12-19T15:20:22;1.30;99.90
10089;DHT22;51898;49.864;8.550;2022-12-19T15:23:25;1.20;99.90
10089;DHT22;51898;49.864;8.550;2022-12-19T15:26:32;1.20;99.90
10089;DHT22;51898;49.864;8.550;2022-12-19T15:29:34;1.30;99.90
10089;DHT22;51898;49.864;8.550;2022-12-19T15:32:36;1.30;99.90
10089;DHT22;51898;49.864;8.550;2022-12-19T15:35:38;1.30;99.90
10089;DHT22;51898;49.864;8.550;2022-12-19T15:38:40;1.20;99.90
10089;DHT22;51898;49.864;8.550;2022-12-19T15:41:42;1.20;99.90
10089;DHT22;51898;49.864;8.550;2022-12-19T15:44:44;1.20;99.90
10089;DHT22;51898;49.864;8.550;2022-12-19T15:47:47;1.20;99.90
10089;DHT22;51898;49.864;8.550;2022-12-19T15:50:50;1.20;99.90
10089;DHT22;51898;49.864;8.550;2022-12-19T15:53:51;1.10;99.90
10089;DHT22;51898;49.864;8.550;2022-12-19T15:56:55;1.10;99.90
10089;DHT22;51898;49.864;8.550;2022-12-19T16:00:00;1.20;99.90
10089;DHT22;51898;49.864;8.550;2022-12-19T16:03:03;1.20;99.90
10089;DHT22;51898;49.864;8.550;2022-12-19T16:06:24;1.20;99.90
10089;DHT22;51898;49.864;8.550;2022-12-19T16:09:26;1.20;99.90
10089;DHT22;51898;49.864;8.550;2022-12-19T16:12:38;1.20;99.90
10089;DHT22;51898;49.864;8.550;2022-12-19T16:15:41;1.10;99.90
10089;DHT22;51898;49.864;8.550;2022-12-19T16:18:43;1.20;99.90
10089;DHT22;51898;49.864;8.550;2022-12-19T16:21:45;1.30;99.90
10089;DHT22;51898;49.864;8.550;2022-12-19T16:24:48;1.30;99.90
10089;DHT22;51898;49.864;8.550;2022-12-19T16:27:53;1.30;99.90
10089;DHT22;51898;49.864;8.550;2022-12-19T16:30:57;1.40;99.90
10089;DHT22;51898;49.864;8.550;2022-12-19T16:33:59;1.40;99.90
10089;DHT22;51898;49.864;8.550;2022-12-19T16:37:02;1.30;99.90
10089;DHT22;51898;49.864;8.550;2022-12-19T16:40:05;1.40;99.90
10089;DHT22;51898;49.864;8.550;2022-12-19T16:43:13;1.40;99.90
10089;DHT22;51898;49.864;8.550;2022-12-19T16:46:19;1.30;99.90
10089;DHT22;51898;49.864;8.550;2022-12-19T16:49:22;1.20;99.90
10089;DHT22;51898;49.864;8.550;2022-12-19T16:52:29;1.20;99.90
10089;DHT22;51898;49.864;8.550;2022-12-19T16:55:31;1.30;99.90
10089;DHT22;51898;49.864;8.550;2022-12-19T16:58:33;1.40;99.90
10089;DHT22;51898;49.864;8.550;2022-12-19T17:01:43;1.30;99.90
10089;DHT22;51898;49.864;8.550;2022-12-19T17:04:46;1.30;99.90
10089;DHT22;51898;49.864;8.550;2022-12-19T17:07:54;1.30;99.90
10089;DHT22;51898;49.864;8.550;2022-12-19T17:10:56;1.30;99.90
10089;DHT22;51898;49.864;8.550;2022-12-19T17:14:06;1.30;99.90
10089;DHT22;51898;49.864;8.550;2022-12-19T17:17:12;1.30;99.90
10089;DHT22;51898;49.864;8.550;2022-12-19T17:20:17;1.20;99.90
10089;DHT22;51898;49.864;8.550;2022-12-19T17:23:21;1.30;99.90
10089;DHT22;51898;49.864;8.550;2022-12-19T17:26:23;1.30;99.90
10089;DHT22;51898;49.864;8.550;2022-12-19T17:29:25;1.30;99.90
10089;DHT22;51898;49.864;8.550;2022-12-19T17:32:26;1.20;99.90
10089;DHT22;51898;49.864;8.550;2022-12-19T17:35:34;1.20;99.90
10089;DHT22;51898;49.864;8.550;2022-12-19T17:38:36;1.20;99.90
10089;DHT22;51898;49.864;8.550;2022-12-19T17:41:38;1.10;99.90
10089;DHT22;51898;49.864;8.550;2022-12-19T17:44:40;1.00;99.90
10089;DHT22;51898;49.864;8.550;2022-12-19T17:47:42;1.00;99.90
10089;DHT22;51898;49.864;8.550;2022-12-19T17:50:45;1.00;99.90
10089;DHT22;51898;49.864;8.550;2022-12-19T17:53:47;1.00;99.90
10089;DHT22;51898;49.864;8.550;2022-12-19T17:56:50;1.10;99.90
10089;DHT22;51898;49.864;8.550;2022-12-19T17:59:51;1.10;99.90
10089;DHT22;51898;49.864;8.550;2022-12-19T18:02:54;1.10;99.90
10089;DHT22;51898;49.864;8.550;2022-12-19T18:05:57;1.00;99.90
10089;DHT22;51898;49.864;8.550;2022-12-19T18:08:58;1.00;99.90
10089;DHT22;51898;49.864;8.550;2022-12-19T18:12:03;0.90;99.90
10089;DHT22;51898;49.864;8.550;2022-12-19T18:15:05;1.00;99.90
10089;DHT22;51898;49.864;8.550;2022-12-19T18:18:12;1.00;99.90
10089;DHT22;51898;49.864;8.550;2022-12-19T18:21:17;1.00;99.90
10089;DHT22;51898;49.864;8.550;2022-12-19T18:24:19;1.10;99.90
10089;DHT22;51898;49.864;8.550;2022-12-19T18:27:21;1.10;99.90
10089;DHT22;51898;49.864;8.550;2022-12-19T18:30:23;1.10;99.90
10089;DHT22;51898;49.864;8.550;2022-12-19T18:33:26;1.20;99.90
10089;DHT22;51898;49.864;8.550;2022-12-19T18:36:28;1.20;99.90
10089;DHT22;51898;49.864;8.550;2022-12-19T18:39:30;1.30;99.90
10089;DHT22;51898;49.864;8.550;2022-12-19T18:42:33;1.20;99.90
10089;DHT22;51898;49.864;8.550;2022-12-19T18:45:37;1.10;99.90
10089;DHT22;51898;49.864;8.550;2022-12-19T18:48:39;1.10;99.90
10089;DHT22;51898;49.864;8.550;2022-12-19T18:51:45;1.10;99.90
10089;DHT22;51898;49.864;8.550;2022-12-19T18:54:47;1.20;99.90
10089;DHT22;51898;49.864;8.550;2022-12-19T18:57:48;1.10;99.90
10089;DHT22;51898;49.864;8.550;2022-12-19T19:00:50;0.90;99.90
10089;DHT22;51898;49.864;8.550;2022-12-19T19:04:01;0.80;99.90
10089;DHT22;51898;49.864;8.550;2022-12-19T19:07:08;0.80;99.90
10089;DHT22;51898;49.864;8.550;2022-12-19T19:10:30;0.90;99.90
10089;DHT22;51898;49.864;8.550;2022-12-19T19:13:32;0.90;99.90
10089;DHT22;51898;49.864;8.550;2022-12-19T19:16:35;0.90;99.90
10089;DHT22;51898;49.864;8.550;2022-12-19T19:19:37;1.00;99.90
10089;DHT22;51898;49.864;8.550;2022-12-19T19:22:41;1.10;99.90
10089;DHT22;51898;49.864;8.550;2022-12-19T19:25:45;1.00;99.90
10089;DHT22;51898;49.864;8.550;2022-12-19T19:28:47;1.00;99.90
10089;DHT22;51898;49.864;8.550;2022-12-19T19:31:53;1.00;99.90
10089;DHT22;51898;49.864;8.550;2022-12-19T19:34:55;1.10;99.90
10089;DHT22;51898;49.864;8.550;2022-12-19T19:38:00;1.20;99.90
10089;DHT22;51898;49.864;8.550;2022-12-19T19:41:03;0.90;99.90
10089;DHT22;51898;49.864;8.550;2022-12-19T19:44:04;0.90;99.90
10089;DHT22;51898;49.864;8.550;2022-12-19T19:47:06;0.80;99.90
10089;DHT22;51898;49.864;8.550;2022-12-19T19:50:10;0.80;99.90
10089;DHT22;51898;49.864;8.550;2022-12-19T19:53:12;0.80;99.90
10089;DHT22;51898;49.864;8.550;2022-12-19T19:56:14;0.80;99.90
10089;DHT22;51898;49.864;8.550;2022-12-19T19:59:15;0.80;99.90
10089;DHT22;51898;49.864;8.550;2022-12-19T20:02:18;0.90;99.90
10089;DHT22;51898;49.864;8.550;2022-12-19T20:05:20;0.90;99.90
10089;DHT22;51898;49.864;8.550;2022-12-19T20:08:22;0.90;99.90
10089;DHT22;51898;49.864;8.550;2022-12-19T20:11:24;0.90;99.90
10089;DHT22;51898;49.864;8.550;2022-12-19T20:14:25;0.90;99.90
10089;DHT22;51898;49.864;8.550;2022-12-19T20:17:30;0.90;99.90
10089;DHT22;51898;49.864;8.550;2022-12-19T20:20:32;0.90;99.90
10089;DHT22;51898;49.864;8.550;2022-12-19T20:23:37;0.90;99.90
10089;DHT22;51898;49.864;8.550;2022-12-19T20:26:39;0.90;99.90
10089;DHT22;51898;49.864;8.550;2022-12-19T20:29:42;0.90;99.90
10089;DHT22;51898;49.864;8.550;2022-12-19T20:32:43;1.00;99.90
10089;DHT22;51898;49.864;8.550;2022-12-19T20:35:45;1.10;99.90
10089;DHT22;51898;49.864;8.550;2022-12-19T20:38:47;1.00;99.90
10089;DHT22;51898;49.864;8.550;2022-12-19T20:41:51;1.00;99.90
10089;DHT22;51898;49.864;8.550;2022-12-19T20:44:52;1.10;99.90
10089;DHT22;51898;49.864;8.550;2022-12-19T20:47:54;1.10;99.90
10089;DHT22;51898;49.864;8.550;2022-12-19T20:50:57;1.20;99.90
10089;DHT22;51898;49.864;8.550;2022-12-19T20:53:59;1.20;99.90
10089;DHT22;51898;49.864;8.550;2022-12-19T20:57:01;1.00;99.90
10089;DHT22;51898;49.864;8.550;2022-12-19T21:00:05;1.00;99.90
10089;DHT22;51898;49.864;8.550;2022-12-19T21:03:07;1.10;99.90
10089;DHT22;51898;49.864;8.550;2022-12-19T21:06:29;1.10;99.90
10089;DHT22;51898;49.864;8.550;2022-12-19T21:09:30;1.10;99.90
10089;DHT22;51898;49.864;8.550;2022-12-19T21:12:32;1.10;99.90
10089;DHT22;51898;49.864;8.550;2022-12-19T21:15:34;1.10;99.90